sensor_id;sensor_type;location;lat;lon;timestamp;P1;durP1;ratioP1;P2;durP2;ratioP2
54269;SDS011;40181;51.560;13.000;2023-03-01T00:02:01;6.93;;;5.57;;
54269;SDS011;40181;51.560;13.000;2023-03-01T00:04:31;5.38;;;4.60;;
54269;SDS011;40181;51.560;13.000;2023-03-01T00:07:03;10.05;;;6.32;;
54269;SDS011;40181;51.560;13.000;2023-03-01T00:09:32;8.70;;;6.20;;
54269;SDS011;40181;51.560;13.000;2023-03-01T00:12:01;6.10;;;5.50;;
54269;SDS011;40181;51.560;13.000;2023-03-01T00:14:31;11.53;;;6.77;;
54269;SDS011;40181;51.560;13.000;2023-03-01T00:17:00;9.48;;;7.00;;
54269;SDS011;40181;51.560;13.000;2023-03-01T00:19:29;13.57;;;8.73;;
54269;SDS011;40181;51.560;13.000;2023-03-01T00:21:58;12.65;;;8.85;;
54269;SDS011;40181;51.560;13.000;2023-03-01T00:24:30;10.82;;;7.40;;
54269;SDS011;40181;51.560;13.000;2023-03-01T00:26:58;8.35;;;6.45;;
54269;SDS011;40181;51.560;13.000;2023-03-01T00:29:28;12.02;;;6.97;;
54269;SDS011;40181;51.560;13.000;2023-03-01T00:31:57;9.85;;;7.00;;
54269;SDS011;40181;51.560;13.000;2023-03-01T00:34:26;6.75;;;5.50;;
54269;SDS011;40181;51.560;13.000;2023-03-01T00:36:55;6.82;;;5.13;;
54269;SDS011;40181;51.560;13.000;2023-03-01T00:39:33;7.10;;;5.35;;
54269;SDS011;40181;51.560;13.000;2023-03-01T00:42:02;7.35;;;5.53;;
54269;SDS011;40181;51.560;13.000;2023-03-01T00:44:31;8.10;;;5.63;;
54269;SDS011;40181;51.560;13.000;2023-03-01T00:47:00;10.85;;;5.78;;
54269;SDS011;40181;51.560;13.000;2023-03-01T00:49:29;5.20;;;4.35;;
54269;SDS011;40181;51.560;13.000;2023-03-01T00:51:59;6.80;;;5.32;;
54269;SDS011;40181;51.560;13.000;2023-03-01T00:54:28;8.25;;;5.45;;
54269;SDS011;40181;51.560;13.000;2023-03-01T00:56:59;7.95;;;5.15;;
54269;SDS011;40181;51.560;13.000;2023-03-01T00:59:29;5.13;;;4.65;;
54269;SDS011;40181;51.560;13.000;2023-03-01T01:01:58;7.40;;;5.15;;
54269;SDS011;40181;51.560;13.000;2023-03-01T01:04:27;6.43;;;5.13;;
54269;SDS011;40181;51.560;13.000;2023-03-01T01:06:56;7.93;;;5.57;;
54269;SDS011;40181;51.560;13.000;2023-03-01T01:09:25;8.88;;;5.50;;
54269;SDS011;40181;51.560;13.000;2023-03-01T01:11:54;9.23;;;6.18;;
54269;SDS011;40181;51.560;13.000;2023-03-01T01:14:26;8.00;;;5.72;;
54269;SDS011;40181;51.560;13.000;2023-03-01T01:16:55;6.85;;;4.97;;
54269;SDS011;40181;51.560;13.000;2023-03-01T01:19:24;11.63;;;5.60;;
54269;SDS011;40181;51.560;13.000;2023-03-01T01:21:54;5.70;;;5.07;;
54269;SDS011;40181;51.560;13.000;2023-03-01T01:24:23;6.07;;;5.47;;
54269;SDS011;40181;51.560;13.000;2023-03-01T01:26:52;6.53;;;5.63;;
54269;SDS011;40181;51.560;13.000;2023-03-01T01:29:22;7.38;;;5.75;;
54269;SDS011;40181;51.560;13.000;2023-03-01T01:31:53;7.25;;;6.05;;
54269;SDS011;40181;51.560;13.000;2023-03-01T01:34:22;5.93;;;5.38;;
54269;SDS011;40181;51.560;13.000;2023-03-01T01:36:52;8.73;;;6.22;;
54269;SDS011;40181;51.560;13.000;2023-03-01T01:39:22;8.85;;;6.38;;
54269;SDS011;40181;51.560;13.000;2023-03-01T01:41:51;9.73;;;5.97;;
54269;SDS011;40181;51.560;13.000;2023-03-01T01:44:21;6.53;;;4.93;;
54269;SDS011;40181;51.560;13.000;2023-03-01T01:46:55;5.30;;;4.80;;
54269;SDS011;40181;51.560;13.000;2023-03-01T01:49:31;5.65;;;4.82;;
54269;SDS011;40181;51.560;13.000;2023-03-01T01:52:07;6.47;;;5.80;;
54269;SDS011;40181;51.560;13.000;2023-03-01T01:54:42;7.15;;;5.57;;
54269;SDS011;40181;51.560;13.000;2023-03-01T01:57:16;5.82;;;5.28;;
54269;SDS011;40181;51.560;13.000;2023-03-01T01:59:52;9.60;;;5.88;;
54269;SDS011;40181;51.560;13.000;2023-03-01T02:02:24;6.03;;;5.38;;
54269;SDS011;40181;51.560;13.000;2023-03-01T02:04:55;7.78;;;5.60;;
54269;SDS011;40181;51.560;13.000;2023-03-01T02:07:35;7.95;;;5.38;;
54269;SDS011;40181;51.560;13.000;2023-03-01T02:10:07;7.60;;;5.25;;
54269;SDS011;40181;51.560;13.000;2023-03-01T02:15:10;7.97;;;5.82;;
54269;SDS011;40181;51.560;13.000;2023-03-01T02:17:39;5.80;;;5.20;;
54269;SDS011;40181;51.560;13.000;2023-03-01T02:20:11;6.68;;;5.20;;
54269;SDS011;40181;51.560;13.000;2023-03-01T02:22:47;8.73;;;6.18;;
54269;SDS011;40181;51.560;13.000;2023-03-01T02:25:24;7.85;;;5.80;;
54269;SDS011;40181;51.560;13.000;2023-03-01T02:28:02;7.68;;;6.15;;
54269;SDS011;40181;51.560;13.000;2023-03-01T02:30:48;8.82;;;5.97;;
54269;SDS011;40181;51.560;13.000;2023-03-01T02:33:31;5.95;;;4.93;;
54269;SDS011;40181;51.560;13.000;2023-03-01T02:36:03;5.60;;;5.10;;
54269;SDS011;40181;51.560;13.000;2023-03-01T02:38:36;8.82;;;5.47;;
54269;SDS011;40181;51.560;13.000;2023-03-01T02:41:05;7.38;;;6.00;;
54269;SDS011;40181;51.560;13.000;2023-03-01T02:43:37;8.50;;;5.72;;
54269;SDS011;40181;51.560;13.000;2023-03-01T02:46:14;6.57;;;5.72;;
54269;SDS011;40181;51.560;13.000;2023-03-01T02:48:48;7.45;;;6.40;;
54269;SDS011;40181;51.560;13.000;2023-03-01T02:51:25;5.93;;;5.35;;
54269;SDS011;40181;51.560;13.000;2023-03-01T02:54:10;6.82;;;5.80;;
54269;SDS011;40181;51.560;13.000;2023-03-01T02:56:46;6.25;;;5.57;;
54269;SDS011;40181;51.560;13.000;2023-03-01T02:59:16;16.10;;;6.28;;
54269;SDS011;40181;51.560;13.000;2023-03-01T03:01:51;6.72;;;6.03;;
54269;SDS011;40181;51.560;13.000;2023-03-01T03:04:21;6.90;;;5.95;;
54269;SDS011;40181;51.560;13.000;2023-03-01T03:06:50;9.05;;;5.75;;
54269;SDS011;40181;51.560;13.000;2023-03-01T03:09:20;8.10;;;6.45;;
54269;SDS011;40181;51.560;13.000;2023-03-01T03:11:49;8.15;;;5.50;;
54269;SDS011;40181;51.560;13.000;2023-03-01T03:14:18;6.72;;;5.60;;
54269;SDS011;40181;51.560;13.000;2023-03-01T03:16:49;7.75;;;6.35;;
54269;SDS011;40181;51.560;13.000;2023-03-01T03:19:21;7.25;;;5.90;;
54269;SDS011;40181;51.560;13.000;2023-03-01T03:21:50;6.20;;;5.38;;
54269;SDS011;40181;51.560;13.000;2023-03-01T03:24:19;5.97;;;5.38;;
54269;SDS011;40181;51.560;13.000;2023-03-01T03:26:48;9.65;;;5.68;;
54269;SDS011;40181;51.560;13.000;2023-03-01T03:29:17;6.50;;;5.53;;
54269;SDS011;40181;51.560;13.000;2023-03-01T03:31:46;7.40;;;5.65;;
54269;SDS011;40181;51.560;13.000;2023-03-01T03:34:17;7.57;;;6.15;;
54269;SDS011;40181;51.560;13.000;2023-03-01T03:36:46;6.60;;;5.88;;
54269;SDS011;40181;51.560;13.000;2023-03-01T03:39:15;7.60;;;5.88;;
54269;SDS011;40181;51.560;13.000;2023-03-01T03:41:45;6.80;;;5.88;;
54269;SDS011;40181;51.560;13.000;2023-03-01T03:44:13;7.47;;;6.43;;
54269;SDS011;40181;51.560;13.000;2023-03-01T03:46:42;8.57;;;6.43;;
54269;SDS011;40181;51.560;13.000;2023-03-01T03:49:12;6.47;;;5.35;;
54269;SDS011;40181;51.560;13.000;2023-03-01T03:51:44;7.50;;;6.70;;
54269;SDS011;40181;51.560;13.000;2023-03-01T03:54:13;8.43;;;6.45;;
54269;SDS011;40181;51.560;13.000;2023-03-01T03:56:42;10.63;;;5.88;;
54269;SDS011;40181;51.560;13.000;2023-03-01T03:59:12;7.10;;;6.10;;
54269;SDS011;40181;51.560;13.000;2023-03-01T04:01:40;7.75;;;6.30;;
54269;SDS011;40181;51.560;13.000;2023-03-01T04:04:10;6.57;;;5.97;;
54269;SDS011;40181;51.560;13.000;2023-03-01T04:06:45;6.22;;;5.63;;
54269;SDS011;40181;51.560;13.000;2023-03-01T04:09:14;7.03;;;5.78;;
54269;SDS011;40181;51.560;13.000;2023-03-01T04:11:43;8.25;;;6.25;;
54269;SDS011;40181;51.560;13.000;2023-03-01T04:14:12;6.47;;;5.88;;
54269;SDS011;40181;51.560;13.000;2023-03-01T04:16:41;6.53;;;5.85;;
54269;SDS011;40181;51.560;13.000;2023-03-01T04:19:10;11.73;;;6.20;;
54269;SDS011;40181;51.560;13.000;2023-03-01T04:21:40;6.00;;;5.40;;
54269;SDS011;40181;51.560;13.000;2023-03-01T04:24:11;6.35;;;5.25;;
54269;SDS011;40181;51.560;13.000;2023-03-01T04:26:41;7.70;;;6.25;;
54269;SDS011;40181;51.560;13.000;2023-03-01T04:29:10;6.80;;;6.10;;
54269;SDS011;40181;51.560;13.000;2023-03-01T04:31:39;6.97;;;6.13;;
54269;SDS011;40181;51.560;13.000;2023-03-01T04:34:08;6.40;;;5.45;;
54269;SDS011;40181;51.560;13.000;2023-03-01T04:39:07;7.65;;;5.13;;
54269;SDS011;40181;51.560;13.000;2023-03-01T04:41:39;7.13;;;5.75;;
54269;SDS011;40181;51.560;13.000;2023-03-01T04:44:09;11.93;;;5.70;;
54269;SDS011;40181;51.560;13.000;2023-03-01T04:46:39;8.80;;;6.13;;
54269;SDS011;40181;51.560;13.000;2023-03-01T04:49:08;5.65;;;5.15;;
54269;SDS011;40181;51.560;13.000;2023-03-01T04:51:37;6.78;;;5.82;;
54269;SDS011;40181;51.560;13.000;2023-03-01T04:54:06;7.93;;;6.22;;
54269;SDS011;40181;51.560;13.000;2023-03-01T04:56:35;6.07;;;5.50;;
54269;SDS011;40181;51.560;13.000;2023-03-01T04:59:07;7.90;;;6.30;;
54269;SDS011;40181;51.560;13.000;2023-03-01T05:01:38;7.75;;;6.25;;
54269;SDS011;40181;51.560;13.000;2023-03-01T05:04:07;8.93;;;6.15;;
54269;SDS011;40181;51.560;13.000;2023-03-01T05:09:07;6.03;;;5.10;;
54269;SDS011;40181;51.560;13.000;2023-03-01T05:11:36;5.60;;;5.03;;
54269;SDS011;40181;51.560;13.000;2023-03-01T05:14:08;5.63;;;5.13;;
54269;SDS011;40181;51.560;13.000;2023-03-01T05:16:38;9.40;;;6.78;;
54269;SDS011;40181;51.560;13.000;2023-03-01T05:19:07;6.68;;;5.78;;
54269;SDS011;40181;51.560;13.000;2023-03-01T05:21:40;5.95;;;5.38;;
54269;SDS011;40181;51.560;13.000;2023-03-01T05:24:22;8.85;;;6.55;;
54269;SDS011;40181;51.560;13.000;2023-03-01T05:26:51;6.32;;;5.40;;
54269;SDS011;40181;51.560;13.000;2023-03-01T05:29:24;6.57;;;5.97;;
54269;SDS011;40181;51.560;13.000;2023-03-01T05:31:55;6.18;;;5.05;;
54269;SDS011;40181;51.560;13.000;2023-03-01T05:34:27;6.07;;;4.72;;
54269;SDS011;40181;51.560;13.000;2023-03-01T05:36:58;5.97;;;5.30;;
54269;SDS011;40181;51.560;13.000;2023-03-01T05:39:28;7.18;;;6.03;;
54269;SDS011;40181;51.560;13.000;2023-03-01T05:41:59;7.78;;;5.78;;
54269;SDS011;40181;51.560;13.000;2023-03-01T05:44:32;6.47;;;5.45;;
54269;SDS011;40181;51.560;13.000;2023-03-01T05:47:01;6.20;;;5.55;;
54269;SDS011;40181;51.560;13.000;2023-03-01T05:49:31;6.00;;;5.47;;
54269;SDS011;40181;51.560;13.000;2023-03-01T05:52:00;7.18;;;6.57;;
54269;SDS011;40181;51.560;13.000;2023-03-01T05:54:29;9.48;;;6.00;;
54269;SDS011;40181;51.560;13.000;2023-03-01T05:56:58;6.70;;;5.97;;
54269;SDS011;40181;51.560;13.000;2023-03-01T05:59:27;6.80;;;5.60;;
54269;SDS011;40181;51.560;13.000;2023-03-01T06:01:59;6.75;;;6.05;;
54269;SDS011;40181;51.560;13.000;2023-03-01T06:04:28;8.68;;;6.00;;
54269;SDS011;40181;51.560;13.000;2023-03-01T06:06:57;6.70;;;5.80;;
54269;SDS011;40181;51.560;13.000;2023-03-01T06:09:26;8.13;;;6.22;;
54269;SDS011;40181;51.560;13.000;2023-03-01T06:11:55;7.05;;;5.70;;
54269;SDS011;40181;51.560;13.000;2023-03-01T06:14:24;7.30;;;6.43;;
54269;SDS011;40181;51.560;13.000;2023-03-01T06:16:53;6.80;;;6.07;;
54269;SDS011;40181;51.560;13.000;2023-03-01T06:19:25;6.30;;;5.70;;
54269;SDS011;40181;51.560;13.000;2023-03-01T06:21:54;6.65;;;6.03;;
54269;SDS011;40181;51.560;13.000;2023-03-01T06:24:23;6.20;;;5.60;;
54269;SDS011;40181;51.560;13.000;2023-03-01T06:26:53;5.97;;;5.38;;
54269;SDS011;40181;51.560;13.000;2023-03-01T06:29:23;10.73;;;5.70;;
54269;SDS011;40181;51.560;13.000;2023-03-01T06:31:52;7.22;;;6.13;;
54269;SDS011;40181;51.560;13.000;2023-03-01T06:34:21;5.75;;;5.20;;
54269;SDS011;40181;51.560;13.000;2023-03-01T06:36:53;8.80;;;5.80;;
54269;SDS011;40181;51.560;13.000;2023-03-01T06:39:22;6.07;;;5.40;;
54269;SDS011;40181;51.560;13.000;2023-03-01T06:41:51;6.75;;;5.95;;
54269;SDS011;40181;51.560;13.000;2023-03-01T06:44:20;7.05;;;5.80;;
54269;SDS011;40181;51.560;13.000;2023-03-01T06:46:49;7.38;;;5.35;;
54269;SDS011;40181;51.560;13.000;2023-03-01T06:49:18;6.47;;;5.80;;
54269;SDS011;40181;51.560;13.000;2023-03-01T06:51:48;8.02;;;6.57;;
54269;SDS011;40181;51.560;13.000;2023-03-01T06:54:19;6.50;;;5.80;;
54269;SDS011;40181;51.560;13.000;2023-03-01T06:56:49;7.07;;;6.05;;
54269;SDS011;40181;51.560;13.000;2023-03-01T06:59:19;7.43;;;6.50;;
54269;SDS011;40181;51.560;13.000;2023-03-01T07:01:48;6.90;;;6.20;;
54269;SDS011;40181;51.560;13.000;2023-03-01T07:04:17;7.15;;;6.45;;
54269;SDS011;40181;51.560;13.000;2023-03-01T07:06:46;13.85;;;7.50;;
54269;SDS011;40181;51.560;13.000;2023-03-01T07:09:22;6.40;;;5.75;;
54269;SDS011;40181;51.560;13.000;2023-03-01T07:11:52;10.13;;;6.40;;
54269;SDS011;40181;51.560;13.000;2023-03-01T07:14:20;8.10;;;6.22;;
54269;SDS011;40181;51.560;13.000;2023-03-01T07:16:50;6.45;;;5.63;;
54269;SDS011;40181;51.560;13.000;2023-03-01T07:19:20;6.35;;;5.85;;
54269;SDS011;40181;51.560;13.000;2023-03-01T07:21:50;6.55;;;5.88;;
54269;SDS011;40181;51.560;13.000;2023-03-01T07:24:23;7.57;;;5.88;;
54269;SDS011;40181;51.560;13.000;2023-03-01T07:26:52;11.18;;;6.35;;
54269;SDS011;40181;51.560;13.000;2023-03-01T07:29:21;6.93;;;5.43;;
54269;SDS011;40181;51.560;13.000;2023-03-01T07:31:50;8.45;;;7.00;;
54269;SDS011;40181;51.560;13.000;2023-03-01T07:34:19;15.93;;;11.52;;
54269;SDS011;40181;51.560;13.000;2023-03-01T07:36:48;11.55;;;9.82;;
54269;SDS011;40181;51.560;13.000;2023-03-01T07:39:17;9.23;;;8.27;;
54269;SDS011;40181;51.560;13.000;2023-03-01T07:44:19;7.13;;;6.43;;
54269;SDS011;40181;51.560;13.000;2023-03-01T07:46:48;9.45;;;7.75;;
54269;SDS011;40181;51.560;13.000;2023-03-01T07:49:21;6.95;;;6.28;;
54269;SDS011;40181;51.560;13.000;2023-03-01T07:51:51;9.68;;;6.80;;
54269;SDS011;40181;51.560;13.000;2023-03-01T07:54:21;5.60;;;5.00;;
54269;SDS011;40181;51.560;13.000;2023-03-01T07:56:53;8.80;;;6.75;;
54269;SDS011;40181;51.560;13.000;2023-03-01T07:59:23;7.93;;;6.75;;
54269;SDS011;40181;51.560;13.000;2023-03-01T08:01:54;10.38;;;7.90;;
54269;SDS011;40181;51.560;13.000;2023-03-01T08:04:23;7.63;;;6.47;;
54269;SDS011;40181;51.560;13.000;2023-03-01T08:06:52;9.10;;;7.00;;
54269;SDS011;40181;51.560;13.000;2023-03-01T08:09:22;8.07;;;6.90;;
54269;SDS011;40181;51.560;13.000;2023-03-01T08:11:55;9.25;;;6.75;;
54269;SDS011;40181;51.560;13.000;2023-03-01T08:14:25;10.32;;;6.80;;
54269;SDS011;40181;51.560;13.000;2023-03-01T08:16:54;11.80;;;6.82;;
54269;SDS011;40181;51.560;13.000;2023-03-01T08:19:23;6.80;;;6.10;;
54269;SDS011;40181;51.560;13.000;2023-03-01T08:21:53;7.97;;;6.85;;
54269;SDS011;40181;51.560;13.000;2023-03-01T08:24:23;7.72;;;6.82;;
54269;SDS011;40181;51.560;13.000;2023-03-01T08:26:55;6.70;;;6.00;;
54269;SDS011;40181;51.560;13.000;2023-03-01T08:29:24;13.70;;;7.43;;
54269;SDS011;40181;51.560;13.000;2023-03-01T08:31:53;8.35;;;6.68;;
54269;SDS011;40181;51.560;13.000;2023-03-01T08:34:22;7.80;;;6.00;;
54269;SDS011;40181;51.560;13.000;2023-03-01T08:36:51;6.78;;;6.07;;
54269;SDS011;40181;51.560;13.000;2023-03-01T08:39:21;12.23;;;7.18;;
54269;SDS011;40181;51.560;13.000;2023-03-01T08:41:50;8.07;;;5.93;;
54269;SDS011;40181;51.560;13.000;2023-03-01T08:44:21;12.32;;;7.20;;
54269;SDS011;40181;51.560;13.000;2023-03-01T08:46:50;9.75;;;7.00;;
54269;SDS011;40181;51.560;13.000;2023-03-01T08:49:20;9.90;;;7.30;;
54269;SDS011;40181;51.560;13.000;2023-03-01T08:51:50;11.38;;;7.20;;
54269;SDS011;40181;51.560;13.000;2023-03-01T08:54:20;8.73;;;7.05;;
54269;SDS011;40181;51.560;13.000;2023-03-01T08:56:50;9.85;;;7.40;;
54269;SDS011;40181;51.560;13.000;2023-03-01T08:59:22;12.35;;;8.63;;
54269;SDS011;40181;51.560;13.000;2023-03-01T09:01:51;8.85;;;7.03;;
54269;SDS011;40181;51.560;13.000;2023-03-01T09:04:20;9.82;;;7.32;;
54269;SDS011;40181;51.560;13.000;2023-03-01T09:06:49;9.13;;;7.18;;
54269;SDS011;40181;51.560;13.000;2023-03-01T09:09:18;8.68;;;7.28;;
54269;SDS011;40181;51.560;13.000;2023-03-01T09:11:47;16.80;;;9.15;;
54269;SDS011;40181;51.560;13.000;2023-03-01T09:14:16;10.60;;;8.10;;
54269;SDS011;40181;51.560;13.000;2023-03-01T09:16:48;10.57;;;7.65;;
54269;SDS011;40181;51.560;13.000;2023-03-01T09:19:17;11.05;;;7.63;;
54269;SDS011;40181;51.560;13.000;2023-03-01T09:21:46;10.57;;;7.53;;
54269;SDS011;40181;51.560;13.000;2023-03-01T09:24:21;8.35;;;7.18;;
54269;SDS011;40181;51.560;13.000;2023-03-01T09:26:55;9.32;;;7.38;;
54269;SDS011;40181;51.560;13.000;2023-03-01T09:29:25;8.45;;;6.85;;
54269;SDS011;40181;51.560;13.000;2023-03-01T09:31:57;8.43;;;7.22;;
54269;SDS011;40181;51.560;13.000;2023-03-01T09:34:26;7.20;;;6.47;;
54269;SDS011;40181;51.560;13.000;2023-03-01T09:36:56;12.57;;;8.50;;
54269;SDS011;40181;51.560;13.000;2023-03-01T09:39:27;10.38;;;8.02;;
54269;SDS011;40181;51.560;13.000;2023-03-01T09:41:58;11.13;;;8.32;;
54269;SDS011;40181;51.560;13.000;2023-03-01T09:44:31;10.40;;;8.25;;
54269;SDS011;40181;51.560;13.000;2023-03-01T09:47:12;11.63;;;8.07;;
54269;SDS011;40181;51.560;13.000;2023-03-01T09:49:50;11.35;;;7.65;;
54269;SDS011;40181;51.560;13.000;2023-03-01T09:52:30;12.80;;;8.88;;
54269;SDS011;40181;51.560;13.000;2023-03-01T09:55:11;11.02;;;8.93;;
54269;SDS011;40181;51.560;13.000;2023-03-01T09:57:43;17.73;;;9.30;;
54269;SDS011;40181;51.560;13.000;2023-03-01T10:00:20;12.43;;;9.60;;
54269;SDS011;40181;51.560;13.000;2023-03-01T10:03:07;18.67;;;10.23;;
54269;SDS011;40181;51.560;13.000;2023-03-01T10:05:45;10.80;;;8.13;;
54269;SDS011;40181;51.560;13.000;2023-03-01T10:08:28;13.00;;;8.85;;
54269;SDS011;40181;51.560;13.000;2023-03-01T10:11:04;10.65;;;9.40;;
54269;SDS011;40181;51.560;13.000;2023-03-01T10:13:48;14.70;;;11.32;;
54269;SDS011;40181;51.560;13.000;2023-03-01T10:16:28;13.50;;;10.27;;
54269;SDS011;40181;51.560;13.000;2023-03-01T10:19:14;14.50;;;10.68;;
54269;SDS011;40181;51.560;13.000;2023-03-01T10:21:51;14.50;;;9.23;;
54269;SDS011;40181;51.560;13.000;2023-03-01T10:24:20;11.27;;;8.97;;
54269;SDS011;40181;51.560;13.000;2023-03-01T10:26:54;11.10;;;8.68;;
54269;SDS011;40181;51.560;13.000;2023-03-01T10:29:29;11.00;;;8.32;;
54269;SDS011;40181;51.560;13.000;2023-03-01T10:32:05;10.77;;;8.65;;
54269;SDS011;40181;51.560;13.000;2023-03-01T10:34:37;17.45;;;10.10;;
54269;SDS011;40181;51.560;13.000;2023-03-01T10:37:09;12.82;;;7.30;;
54269;SDS011;40181;51.560;13.000;2023-03-01T10:39:58;11.50;;;8.93;;
54269;SDS011;40181;51.560;13.000;2023-03-01T10:42:34;13.35;;;9.35;;
54269;SDS011;40181;51.560;13.000;2023-03-01T10:45:16;16.02;;;10.18;;
54269;SDS011;40181;51.560;13.000;2023-03-01T10:48:05;12.65;;;8.77;;
54269;SDS011;40181;51.560;13.000;2023-03-01T10:50:44;15.85;;;8.95;;
54269;SDS011;40181;51.560;13.000;2023-03-01T10:53:19;10.30;;;7.45;;
54269;SDS011;40181;51.560;13.000;2023-03-01T10:55:58;9.25;;;7.55;;
54269;SDS011;40181;51.560;13.000;2023-03-01T10:58:30;9.00;;;7.05;;
54269;SDS011;40181;51.560;13.000;2023-03-01T11:01:00;11.07;;;8.32;;
54269;SDS011;40181;51.560;13.000;2023-03-01T11:03:33;10.88;;;9.05;;
54269;SDS011;40181;51.560;13.000;2023-03-01T11:06:19;8.10;;;5.90;;
54269;SDS011;40181;51.560;13.000;2023-03-01T11:08:51;11.20;;;8.15;;
54269;SDS011;40181;51.560;13.000;2023-03-01T11:11:24;12.07;;;8.93;;
54269;SDS011;40181;51.560;13.000;2023-03-01T11:14:00;13.35;;;8.85;;
54269;SDS011;40181;51.560;13.000;2023-03-01T11:16:34;11.75;;;8.43;;
54269;SDS011;40181;51.560;13.000;2023-03-01T11:19:16;10.38;;;6.72;;
54269;SDS011;40181;51.560;13.000;2023-03-01T11:21:55;9.75;;;6.22;;
54269;SDS011;40181;51.560;13.000;2023-03-01T11:24:32;11.30;;;8.13;;
54269;SDS011;40181;51.560;13.000;2023-03-01T11:27:11;13.95;;;7.78;;
54269;SDS011;40181;51.560;13.000;2023-03-01T11:29:48;11.07;;;8.27;;
54269;SDS011;40181;51.560;13.000;2023-03-01T11:32:24;8.60;;;6.85;;
54269;SDS011;40181;51.560;13.000;2023-03-01T11:34:57;10.85;;;7.25;;
54269;SDS011;40181;51.560;13.000;2023-03-01T11:37:36;19.73;;;8.90;;
54269;SDS011;40181;51.560;13.000;2023-03-01T11:40:23;17.08;;;6.85;;
54269;SDS011;40181;51.560;13.000;2023-03-01T11:43:06;12.85;;;6.85;;
54269;SDS011;40181;51.560;13.000;2023-03-01T11:45:54;9.05;;;7.20;;
54269;SDS011;40181;51.560;13.000;2023-03-01T11:48:56;11.20;;;6.63;;
54269;SDS011;40181;51.560;13.000;2023-03-01T11:51:56;11.50;;;6.00;;
54269;SDS011;40181;51.560;13.000;2023-03-01T11:54:37;14.20;;;6.35;;
54269;SDS011;40181;51.560;13.000;2023-03-01T11:57:20;7.82;;;5.78;;
54269;SDS011;40181;51.560;13.000;2023-03-01T12:00:16;8.95;;;5.82;;
54269;SDS011;40181;51.560;13.000;2023-03-01T12:03:14;8.13;;;4.85;;
54269;SDS011;40181;51.560;13.000;2023-03-01T12:06:01;7.47;;;4.50;;
54269;SDS011;40181;51.560;13.000;2023-03-01T12:09:04;11.25;;;5.20;;
54269;SDS011;40181;51.560;13.000;2023-03-01T12:11:52;8.18;;;5.10;;
54269;SDS011;40181;51.560;13.000;2023-03-01T12:17:33;7.95;;;5.28;;
54269;SDS011;40181;51.560;13.000;2023-03-01T12:20:26;7.93;;;5.43;;
54269;SDS011;40181;51.560;13.000;2023-03-01T12:26:15;5.10;;;3.72;;
54269;SDS011;40181;51.560;13.000;2023-03-01T12:28:55;5.60;;;3.92;;
54269;SDS011;40181;51.560;13.000;2023-03-01T12:34:51;6.50;;;4.38;;
54269;SDS011;40181;51.560;13.000;2023-03-01T12:37:40;6.30;;;4.60;;
54269;SDS011;40181;51.560;13.000;2023-03-01T12:40:25;8.55;;;4.15;;
54269;SDS011;40181;51.560;13.000;2023-03-01T12:43:13;5.40;;;3.85;;
54269;SDS011;40181;51.560;13.000;2023-03-01T12:46:23;8.75;;;5.07;;
54269;SDS011;40181;51.560;13.000;2023-03-01T12:49:10;8.77;;;4.57;;
54269;SDS011;40181;51.560;13.000;2023-03-01T12:51:43;6.80;;;4.20;;
54269;SDS011;40181;51.560;13.000;2023-03-01T12:54:20;6.15;;;4.07;;
54269;SDS011;40181;51.560;13.000;2023-03-01T12:56:59;5.73;;;4.10;;
54269;SDS011;40181;51.560;13.000;2023-03-01T12:59:42;5.88;;;4.20;;
54269;SDS011;40181;51.560;13.000;2023-03-01T13:02:22;5.05;;;3.60;;
54269;SDS011;40181;51.560;13.000;2023-03-01T13:05:01;4.30;;;3.42;;
54269;SDS011;40181;51.560;13.000;2023-03-01T13:07:50;6.50;;;4.03;;
54269;SDS011;40181;51.560;13.000;2023-03-01T13:10:29;7.32;;;4.43;;
54269;SDS011;40181;51.560;13.000;2023-03-01T13:13:12;7.85;;;4.57;;
54269;SDS011;40181;51.560;13.000;2023-03-01T13:15:47;5.15;;;4.10;;
54269;SDS011;40181;51.560;13.000;2023-03-01T13:18:35;6.45;;;4.30;;
54269;SDS011;40181;51.560;13.000;2023-03-01T13:21:04;5.32;;;3.80;;
54269;SDS011;40181;51.560;13.000;2023-03-01T13:23:35;5.38;;;3.80;;
54269;SDS011;40181;51.560;13.000;2023-03-01T13:26:14;5.95;;;3.13;;
54269;SDS011;40181;51.560;13.000;2023-03-01T13:28:49;4.72;;;3.38;;
54269;SDS011;40181;51.560;13.000;2023-03-01T13:31:57;8.75;;;4.30;;
54269;SDS011;40181;51.560;13.000;2023-03-01T13:34:43;5.13;;;3.95;;
54269;SDS011;40181;51.560;13.000;2023-03-01T13:37:21;7.78;;;4.05;;
54269;SDS011;40181;51.560;13.000;2023-03-01T13:40:01;6.15;;;3.50;;
54269;SDS011;40181;51.560;13.000;2023-03-01T13:42:48;5.90;;;3.97;;
54269;SDS011;40181;51.560;13.000;2023-03-01T13:45:20;5.88;;;3.85;;
54269;SDS011;40181;51.560;13.000;2023-03-01T13:48:04;5.35;;;3.92;;
54269;SDS011;40181;51.560;13.000;2023-03-01T13:50:45;5.07;;;3.45;;
54269;SDS011;40181;51.560;13.000;2023-03-01T13:53:19;6.32;;;4.63;;
54269;SDS011;40181;51.560;13.000;2023-03-01T13:55:54;4.88;;;3.45;;
54269;SDS011;40181;51.560;13.000;2023-03-01T13:58:28;6.85;;;3.80;;
54269;SDS011;40181;51.560;13.000;2023-03-01T14:01:01;5.90;;;3.78;;
54269;SDS011;40181;51.560;13.000;2023-03-01T14:03:40;4.25;;;3.33;;
54269;SDS011;40181;51.560;13.000;2023-03-01T14:06:13;6.50;;;3.42;;
54269;SDS011;40181;51.560;13.000;2023-03-01T14:08:44;7.25;;;3.72;;
54269;SDS011;40181;51.560;13.000;2023-03-01T14:14:45;4.85;;;3.28;;
54269;SDS011;40181;51.560;13.000;2023-03-01T14:17:24;4.53;;;3.15;;
54269;SDS011;40181;51.560;13.000;2023-03-01T14:20:14;2.97;;;2.30;;
54269;SDS011;40181;51.560;13.000;2023-03-01T14:22:48;8.80;;;3.85;;
54269;SDS011;40181;51.560;13.000;2023-03-01T14:25:26;6.47;;;4.15;;
54269;SDS011;40181;51.560;13.000;2023-03-01T14:27:58;7.45;;;3.50;;
54269;SDS011;40181;51.560;13.000;2023-03-01T14:30:32;5.18;;;3.58;;
54269;SDS011;40181;51.560;13.000;2023-03-01T14:33:06;4.57;;;3.33;;
54269;SDS011;40181;51.560;13.000;2023-03-01T14:35:57;5.70;;;3.67;;
54269;SDS011;40181;51.560;13.000;2023-03-01T14:41:00;4.22;;;3.13;;
54269;SDS011;40181;51.560;13.000;2023-03-01T14:43:32;4.95;;;3.40;;
54269;SDS011;40181;51.560;13.000;2023-03-01T14:46:02;6.35;;;4.03;;
54269;SDS011;40181;51.560;13.000;2023-03-01T14:48:32;4.88;;;3.65;;
54269;SDS011;40181;51.560;13.000;2023-03-01T14:51:03;4.68;;;3.38;;
54269;SDS011;40181;51.560;13.000;2023-03-01T14:53:35;5.88;;;2.88;;
54269;SDS011;40181;51.560;13.000;2023-03-01T14:56:05;9.65;;;3.97;;
54269;SDS011;40181;51.560;13.000;2023-03-01T14:58:42;4.15;;;2.97;;
54269;SDS011;40181;51.560;13.000;2023-03-01T15:01:13;3.53;;;2.65;;
54269;SDS011;40181;51.560;13.000;2023-03-01T15:03:45;5.60;;;3.67;;
54269;SDS011;40181;51.560;13.000;2023-03-01T15:06:19;5.95;;;3.28;;
54269;SDS011;40181;51.560;13.000;2023-03-01T15:08:51;6.65;;;3.60;;
54269;SDS011;40181;51.560;13.000;2023-03-01T15:11:23;5.07;;;3.20;;
54269;SDS011;40181;51.560;13.000;2023-03-01T15:13:56;5.80;;;3.67;;
54269;SDS011;40181;51.560;13.000;2023-03-01T15:18:57;4.65;;;2.80;;
54269;SDS011;40181;51.560;13.000;2023-03-01T15:21:32;3.08;;;2.10;;
54269;SDS011;40181;51.560;13.000;2023-03-01T15:24:05;3.47;;;2.65;;
54269;SDS011;40181;51.560;13.000;2023-03-01T15:26:50;3.75;;;2.83;;
54269;SDS011;40181;51.560;13.000;2023-03-01T15:29:23;5.70;;;3.33;;
54269;SDS011;40181;51.560;13.000;2023-03-01T15:31:56;4.40;;;2.42;;
54269;SDS011;40181;51.560;13.000;2023-03-01T15:34:29;7.05;;;3.28;;
54269;SDS011;40181;51.560;13.000;2023-03-01T15:37:02;4.40;;;3.22;;